Terminal Aerodrome Forecast
Issued by NWS

Home | Current Version | Previous Version | Text Only | Print | Product List | Glossary On
Versions: 1 2 3 4 5 6 7 8 9 10 11 12 13 14 15 16 17 18 19 20 21 22 23 24 25 26 27 28 29 30 31 32 33 34
000
FTUS46 KPDT 191900 AAD
TAFDLS
TAF AMD
KDLS 191917Z 1919/2018 32004KT P6SM BKN005 BKN200
      TEMPO 1919/1921 00000KT 5SM BR OVC004
     FM192100 31005KT P6SM FEW007 SCT050 SCT200
     FM200400 11002KT 5SM BR SCT040 OVC070
     FM200700 08003KT 3SM -RA BR BKN035 OVC045=

USA.gov is the U.S. government's official web portal to all federal, state and local government web resources and services.